Time,TemperatureF,DewpointF,PressureIn,WindDirection,WindDirectionDegrees,WindSpeedMPH,WindSpeedGustMPH,Humidity,HourlyPrecipIn,Conditions,Clouds,dailyrainin,SoftwareType,DateUTC
2013-01-12 00:09:00,33.8,33.0,30.11,NNW,348,0.0,1.0,98,0.00,,,0.00,weatherlink.com 1.10,2013-01-12 05:09:00,
2013-01-12 00:24:00,33.7,33.0,30.11,NNW,348,0.0,0.0,98,0.00,,,0.00,weatherlink.com 1.10,2013-01-12 05:24:00,
2013-01-12 00:39:00,33.7,33.0,30.12,NNW,348,0.0,1.0,98,0.00,,,0.00,weatherlink.com 1.10,2013-01-12 05:39:00,
2013-01-12 00:54:00,33.8,33.0,30.11,North,352,0.0,1.0,98,0.00,,,0.00,weatherlink.com 1.10,2013-01-12 05:54:00,
2013-01-12 01:09:00,33.7,33.0,30.12,North,352,0.0,0.0,98,0.00,,,0.00,weatherlink.com 1.10,2013-01-12 06:09:00,
2013-01-12 01:24:00,33.7,33.0,30.12,North,351,0.0,0.0,98,0.00,,,0.00,weatherlink.com 1.10,2013-01-12 06:24:00,
2013-01-12 01:39:00,33.6,33.0,30.12,North,352,0.0,0.0,98,0.00,,,0.00,weatherlink.com 1.10,2013-01-12 06:39:00,
2013-01-12 01:54:00,33.7,33.0,30.12,North,352,0.0,0.0,98,0.00,,,0.00,weatherlink.com 1.10,2013-01-12 06:54:00,
2013-01-12 02:09:00,33.6,33.0,30.12,North,352,0.0,1.0,98,0.00,,,0.00,weatherlink.com 1.10,2013-01-12 07:09:00,
2013-01-12 02:24:00,33.8,33.0,30.12,North,352,0.0,0.0,98,0.00,,,0.00,weatherlink.com 1.10,2013-01-12 07:24:00,
2013-01-12 02:39:00,33.7,33.0,30.13,SW,226,0.0,2.0,98,0.00,,,0.00,weatherlink.com 1.10,2013-01-12 07:39:00,
2013-01-12 02:54:00,33.7,33.0,30.14,SW,226,0.0,0.0,98,0.00,,,0.00,weatherlink.com 1.10,2013-01-12 07:54:00,
2013-01-12 03:09:00,33.8,33.0,30.14,SW,226,0.0,1.0,98,0.00,,,0.00,weatherlink.com 1.10,2013-01-12 08:09:00,
2013-01-12 03:24:00,33.8,34.0,30.15,SW,226,0.0,0.0,99,0.00,,,0.00,weatherlink.com 1.10,2013-01-12 08:24:00,
2013-01-12 03:39:00,33.9,34.0,30.14,SW,229,0.0,1.0,99,0.00,,,0.00,weatherlink.com 1.10,2013-01-12 08:39:00,
2013-01-12 03:54:00,33.8,33.0,30.13,NNE,26,1.0,1.0,98,0.00,,,0.00,weatherlink.com 1.10,2013-01-12 08:54:00,
2013-01-12 04:09:00,34.0,34.0,30.13,NNE,19,0.0,1.0,99,0.00,,,0.00,weatherlink.com 1.10,2013-01-12 09:09:00,
2013-01-12 04:24:00,33.8,33.0,30.13,NNE,19,0.0,0.0,98,0.00,,,0.00,weatherlink.com 1.10,2013-01-12 09:24:00,
2013-01-12 04:39:00,33.8,34.0,30.12,ENE,61,0.0,1.0,99,0.00,,,0.00,weatherlink.com 1.10,2013-01-12 09:39:00,
2013-01-12 04:54:00,33.9,34.0,30.13,ENE,61,0.0,0.0,99,0.00,,,0.00,weatherlink.com 1.10,2013-01-12 09:54:00,
2013-01-12 05:09:00,34.0,34.0,30.13,WSW,242,1.0,2.0,99,0.00,,,0.00,weatherlink.com 1.10,2013-01-12 10:09:00,
2013-01-12 05:24:00,34.0,34.0,30.14,WSW,243,0.0,0.0,99,0.00,,,0.00,weatherlink.com 1.10,2013-01-12 10:24:00,
2013-01-12 05:39:00,33.9,34.0,30.13,WSW,242,0.0,1.0,99,0.00,,,0.00,weatherlink.com 1.10,2013-01-12 10:39:00,
2013-01-12 05:54:00,33.8,34.0,30.14,WSW,243,0.0,1.0,99,0.00,,,0.00,weatherlink.com 1.10,2013-01-12 10:54:00,
2013-01-12 06:09:00,33.7,34.0,30.14,WSW,243,0.0,0.0,99,0.00,,,0.00,weatherlink.com 1.10,2013-01-12 11:09:00,
2013-01-12 06:24:00,33.7,34.0,30.14,WSW,242,0.0,1.0,99,0.00,,,0.00,weatherlink.com 1.10,2013-01-12 11:24:00,
2013-01-12 06:39:00,33.8,34.0,30.15,SW,229,1.0,2.0,99,0.00,,,0.00,weatherlink.com 1.10,2013-01-12 11:39:00,
2013-01-12 06:54:00,33.9,34.0,30.16,SW,229,0.0,1.0,99,0.00,,,0.00,weatherlink.com 1.10,2013-01-12 11:54:00,
2013-01-12 07:10:00,33.8,34.0,30.15,SW,231,0.0,1.0,99,0.00,,,0.00,weatherlink.com 1.10,2013-01-12 12:10:00,
2013-01-12 07:25:00,33.9,34.0,30.15,SW,231,0.0,1.0,99,0.00,,,0.00,weatherlink.com 1.10,2013-01-12 12:25:00,
2013-01-12 07:40:00,33.8,34.0,30.16,SW,231,0.0,1.0,99,0.00,,,0.00,weatherlink.com 1.10,2013-01-12 12:40:00,
2013-01-12 07:55:00,34.0,34.0,30.16,SW,229,0.0,0.0,99,0.00,,,0.00,weatherlink.com 1.10,2013-01-12 12:55:00,
2013-01-12 08:10:00,33.9,34.0,30.16,SW,229,0.0,0.0,99,0.00,,,0.00,weatherlink.com 1.10,2013-01-12 13:10:00,
2013-01-12 08:25:00,34.1,34.0,30.16,SW,231,0.0,1.0,99,0.00,,,0.00,weatherlink.com 1.10,2013-01-12 13:25:00,
2013-01-12 08:40:00,34.1,34.0,30.16,SW,229,0.0,0.0,99,0.00,,,0.00,weatherlink.com 1.10,2013-01-12 13:40:00,
2013-01-12 08:55:00,34.3,34.0,30.16,SW,229,0.0,1.0,99,0.00,,,0.00,weatherlink.com 1.10,2013-01-12 13:55:00,
2013-01-12 09:10:00,34.6,34.0,30.16,SW,231,0.0,1.0,99,0.00,,,0.00,weatherlink.com 1.10,2013-01-12 14:10:00,
2013-01-12 09:25:00,35.2,35.0,30.16,SW,231,0.0,0.0,99,0.00,,,0.00,weatherlink.com 1.10,2013-01-12 14:25:00,
2013-01-12 09:40:00,35.6,35.0,30.17,SW,229,0.0,1.0,99,0.00,,,0.00,weatherlink.com 1.10,2013-01-12 14:40:00,
2013-01-12 09:55:00,36.2,36.0,30.18,SW,229,0.0,0.0,99,0.00,,,0.00,weatherlink.com 1.10,2013-01-12 14:55:00,
2013-01-12 10:10:00,37.4,37.0,30.18,SW,229,0.0,0.0,99,0.00,,,0.00,weatherlink.com 1.10,2013-01-12 15:10:00,
2013-01-12 10:25:00,37.8,38.0,30.18,SW,229,0.0,1.0,99,0.00,,,0.00,weatherlink.com 1.10,2013-01-12 15:25:00,
2013-01-12 10:40:00,38.1,38.0,30.18,SW,231,0.0,1.0,99,0.00,,,0.00,weatherlink.com 1.10,2013-01-12 15:40:00,
2013-01-12 10:55:00,38.8,39.0,30.18,SW,231,0.0,0.0,99,0.00,,,0.00,weatherlink.com 1.10,2013-01-12 15:55:00,
2013-01-12 11:10:00,39.5,39.0,30.17,SE,124,0.0,1.0,99,0.00,,,0.00,weatherlink.com 1.10,2013-01-12 16:10:00,
2013-01-12 11:25:00,40.1,40.0,30.17,SE,124,0.0,0.0,99,0.00,,,0.00,weatherlink.com 1.10,2013-01-12 16:25:00,
2013-01-12 11:40:00,40.5,40.0,30.16,ESE,112,0.0,1.0,99,0.00,,,0.00,weatherlink.com 1.10,2013-01-12 16:40:00,
2013-01-12 11:55:00,40.9,41.0,30.15,SW,231,0.0,2.0,99,0.00,,,0.00,weatherlink.com 1.10,2013-01-12 16:55:00,
2013-01-12 12:10:00,42.2,42.0,30.15,SW,231,0.0,1.0,99,0.00,,,0.00,weatherlink.com 1.10,2013-01-12 17:10:00,
2013-01-12 12:25:00,42.7,42.0,30.13,SW,233,0.0,2.0,98,0.00,,,0.00,weatherlink.com 1.10,2013-01-12 17:25:00,
2013-01-12 12:40:00,43.0,43.0,30.13,SW,233,1.0,1.0,98,0.00,,,0.00,weatherlink.com 1.10,2013-01-12 17:40:00,
2013-01-12 12:55:00,43.4,43.0,30.12,SW,236,0.0,2.0,97,0.00,,,0.00,weatherlink.com 1.10,2013-01-12 17:55:00,
2013-01-12 13:10:00,44.2,43.0,30.13,SW,236,0.0,1.0,95,0.00,,,0.00,weatherlink.com 1.10,2013-01-12 18:10:00,
2013-01-12 13:25:00,44.7,43.0,30.13,SW,214,0.0,2.0,92,0.00,,,0.00,weatherlink.com 1.10,2013-01-12 18:25:00,
2013-01-12 13:40:00,45.4,43.0,30.12,East,80,0.0,1.0,90,0.00,,,0.00,weatherlink.com 1.10,2013-01-12 18:40:00,
2013-01-12 13:55:00,46.1,43.0,30.12,ENE,65,0.0,1.0,90,0.00,,,0.00,weatherlink.com 1.10,2013-01-12 18:55:00,
2013-01-12 14:10:00,47.3,44.0,30.11,WNW,300,1.0,1.0,87,0.00,,,0.00,weatherlink.com 1.10,2013-01-12 19:10:00,
2013-01-12 14:25:00,47.3,43.0,30.12,SW,233,2.0,2.0,85,0.00,,,0.00,weatherlink.com 1.10,2013-01-12 19:25:00,
2013-01-12 14:40:00,47.5,44.0,30.12,SW,232,1.0,2.0,86,0.00,,,0.00,weatherlink.com 1.10,2013-01-12 19:40:00,
2013-01-12 14:55:00,47.5,44.0,30.12,WSW,240,1.0,2.0,86,0.00,,,0.00,weatherlink.com 1.10,2013-01-12 19:55:00,
2013-01-12 15:10:00,46.9,43.0,30.12,SW,229,0.0,2.0,87,0.00,,,0.00,weatherlink.com 1.10,2013-01-12 20:10:00,
2013-01-12 15:25:00,47.3,44.0,30.14,SW,219,1.0,2.0,87,0.00,,,0.00,weatherlink.com 1.10,2013-01-12 20:25:00,
2013-01-12 15:40:00,47.2,43.0,30.13,WSW,245,1.0,2.0,86,0.00,,,0.00,weatherlink.com 1.10,2013-01-12 20:40:00,
2013-01-12 15:56:00,45.5,43.0,30.13,WNW,302,1.0,2.0,89,0.00,,,0.00,weatherlink.com 1.10,2013-01-12 20:56:00,
2013-01-12 16:11:00,44.0,41.0,30.13,NW,304,0.0,1.0,90,0.00,,,0.00,weatherlink.com 1.10,2013-01-12 21:11:00,
2013-01-12 16:26:00,42.4,40.0,30.14,North,6,0.0,1.0,92,0.00,,,0.00,weatherlink.com 1.10,2013-01-12 21:26:00,
2013-01-12 16:41:00,40.7,39.0,30.13,ENE,57,0.0,1.0,92,0.00,,,0.00,weatherlink.com 1.10,2013-01-12 21:41:00,
2013-01-12 16:56:00,39.5,38.0,30.15,ENE,57,0.0,0.0,93,0.00,,,0.00,weatherlink.com 1.10,2013-01-12 21:56:00,
2013-01-12 17:11:00,38.6,37.0,30.15,ENE,57,1.0,1.0,93,0.00,,,0.00,weatherlink.com 1.10,2013-01-12 22:11:00,
2013-01-12 17:26:00,38.0,37.0,30.15,ENE,57,0.0,0.0,95,0.00,,,0.00,weatherlink.com 1.10,2013-01-12 22:26:00,
2013-01-12 17:41:00,36.9,36.0,30.15,ENE,68,1.0,1.0,95,0.00,,,0.00,weatherlink.com 1.10,2013-01-12 22:41:00,
2013-01-12 17:56:00,36.0,35.0,30.15,ENE,68,0.0,0.0,95,0.00,,,0.00,weatherlink.com 1.10,2013-01-12 22:56:00,
2013-01-12 18:11:00,35.5,35.0,30.14,ENE,60,0.0,1.0,96,0.00,,,0.00,weatherlink.com 1.10,2013-01-12 23:11:00,
2013-01-12 18:26:00,34.9,34.0,30.15,NE,42,0.0,1.0,96,0.00,,,0.00,weatherlink.com 1.10,2013-01-12 23:26:00,
2013-01-12 18:41:00,34.4,34.0,30.15,North,5,1.0,1.0,97,0.00,,,0.00,weatherlink.com 1.10,2013-01-12 23:41:00,
2013-01-12 18:56:00,33.9,33.0,30.14,ENE,58,1.0,1.0,97,0.00,,,0.00,weatherlink.com 1.10,2013-01-12 23:56:00,
2013-01-12 19:11:00,33.4,33.0,30.13,NE,34,0.0,1.0,97,0.00,,,0.00,weatherlink.com 1.10,2013-01-13 00:11:00,
2013-01-12 19:26:00,32.7,32.0,30.13,NE,34,0.0,0.0,97,0.00,,,0.00,weatherlink.com 1.10,2013-01-13 00:26:00,
2013-01-12 19:41:00,32.8,32.0,30.13,NE,34,0.0,1.0,98,0.00,,,0.00,weatherlink.com 1.10,2013-01-13 00:41:00,
2013-01-12 19:56:00,32.9,32.0,30.13,NE,34,0.0,1.0,98,0.00,,,0.00,weatherlink.com 1.10,2013-01-13 00:56:00,
2013-01-12 20:11:00,33.5,33.0,30.12,NE,51,0.0,1.0,98,0.00,,,0.00,weatherlink.com 1.10,2013-01-13 01:11:00,
2013-01-12 20:26:00,33.9,33.0,30.12,NNE,30,0.0,1.0,98,0.00,,,0.00,weatherlink.com 1.10,2013-01-13 01:26:00,
2013-01-12 20:41:00,34.0,34.0,30.13,NNE,30,0.0,0.0,98,0.00,,,0.00,weatherlink.com 1.10,2013-01-13 01:41:00,
2013-01-12 20:56:00,34.2,34.0,30.13,NNW,338,0.0,1.0,98,0.00,,,0.00,weatherlink.com 1.10,2013-01-13 01:56:00,
2013-01-12 21:11:00,34.2,34.0,30.13,NNW,339,0.0,0.0,98,0.00,,,0.00,weatherlink.com 1.10,2013-01-13 02:11:00,
2013-01-12 21:26:00,34.3,34.0,30.12,North,356,1.0,2.0,98,0.00,,,0.00,weatherlink.com 1.10,2013-01-13 02:26:00,
2013-01-12 21:41:00,34.4,34.0,30.13,ENE,65,1.0,1.0,98,0.00,,,0.00,weatherlink.com 1.10,2013-01-13 02:41:00,
2013-01-12 21:56:00,34.4,34.0,30.13,ENE,68,0.0,1.0,98,0.00,,,0.00,weatherlink.com 1.10,2013-01-13 02:56:00,
2013-01-12 22:11:00,34.4,34.0,30.13,North,352,0.0,1.0,98,0.00,,,0.00,weatherlink.com 1.10,2013-01-13 03:11:00,
2013-01-12 22:26:00,34.1,34.0,30.13,North,351,0.0,2.0,98,0.00,,,0.00,weatherlink.com 1.10,2013-01-13 03:26:00,
2013-01-12 22:41:00,34.1,34.0,30.13,SSW,203,0.0,1.0,98,0.00,,,0.00,weatherlink.com 1.10,2013-01-13 03:41:00,
2013-01-12 22:56:00,34.1,34.0,30.13,East,79,0.0,1.0,98,0.00,,,0.00,weatherlink.com 1.10,2013-01-13 03:56:00,
2013-01-12 23:11:00,34.3,34.0,30.11,East,79,1.0,1.0,98,0.00,,,0.00,weatherlink.com 1.10,2013-01-13 04:11:00,
2013-01-12 23:26:00,34.5,34.0,30.09,NNE,13,0.0,1.0,98,0.00,,,0.00,weatherlink.com 1.10,2013-01-13 04:26:00,
2013-01-12 23:41:00,34.5,34.0,30.09,WSW,245,0.0,1.0,99,0.00,,,0.00,weatherlink.com 1.10,2013-01-13 04:41:00,
2013-01-12 23:56:00,34.7,35.0,30.10,WSW,245,0.0,1.0,99,0.00,,,0.00,weatherlink.com 1.10,2013-01-13 04:56:00,